Canberra, Australia
Current Conditions -  °F | °C
As of 8:30 AM on Tuesday 23 Dec 2014 (Local Time) from YSCB Reporting Station
Broken Clouds Broken Clouds  
Wind Chill: 68°   Ceiling: 11000
Heat Index: 68°   Visibility: 6mi
Dew Point: 61°   Wind: 3mph
Humidity: 78%   Direction: 350°N
Pressure: 29.97"   Gusts: NA
Location:  35.31°S, 149.13°E
Report Text: YSCB 222130Z 35003KT 9999 FEW012 BKN110 20/16 Q1015
Loading
Personal Weather Stations






























Interactive Weather Map New forecast layout! Learn more

10-Day Weather Forecast

Advertisements
Track Severe Weather on mobile